Aeroporto :







RITROVATECI SU...

 
LOGIN :

Iscrizione | Disclaimer

   EN    FR    IT 

 









Sommario :    VFR   VFR Marginale   IFR   IFR Intensivo   IFR Molto Intensivo
Visibilità : 
Base nubi : 
>= 8 km
>= 3000ft
5 / 8 km
1000 / 3000 ft
1500m / 5 km
500 / 1000 ft
800 / 1500m
200 / 500 ft
< 800m
< 200 ft
Simboli :   Temporali  Nebbia  Neve Forte  Precipitazioni Forti  Vento > 20 kt






- Altitudine del aeroporto : 1161 ft


KBML - Berlin Regional

ULTIMO METAR :
  • 171252Z AUTO 29010G16KT 7SM -SN BKN035 M03/M09 A3010 RMK AO2 SNB49 SLP209 P0000 T10331094

METARs OBSOLETI :
  • 171152Z AUTO VRB06KT 10SM FEW060 M03/M08 A3005 RMK AO2 SLP192 60000 I6000 T10331083 11017 21067 53020
  • 171052Z AUTO VRB05KT 9SM SCT036 BKN046 OVC055 M02/M06 A3002 RMK AO2 SNE48 SLP182 P0000 T10221061
  • 171035Z AUTO VRB03KT 3SM -SN FEW025 OVC034 M02/M05 A3001 RMK AO2 P0000 T10221050
  • 171028Z AUTO VRB04KT 2SM -SN BKN029 OVC034 M02/M05 A3001 RMK AO2 P0000 T10221050
  • 171019Z AUTO VRB04KT 1 1/4SM -SN OVC027 M02/M04 A3001 RMK AO2 P0000 T10171044
  • 170952Z AUTO 28006KT 1 3/4SM -SN OVC031 M02/M04 A2999 RMK AO2 SNB19 SLP172 P0000 T10171044

TAF N/A



MetMap, La meteo Aeronautica in un colpo d'occhio ! - Copyright ORBIFLY Dicembre 2007 - Disclaimer

ORBIFLY MET'MAP TEAM :

Programmazione e sviluppo : Alexandra Zaïnal
Concezione : Baudouin d'Aumeries
Aiuto per la programmazione : Marc-Olivier Méhu
Supporto tecnico e logistico : Manuel Goepfert
Aiuto per la traduzione : Arnaldo La Scala

Contatto : metmap@orbifly.com




FONTI E CREDITI :

   NOAA